Time;durP1;ratioP1;P1;durP2;ratioP2;P2;SDS_P1;SDS_P2;PMS_P1;PMS_P2;Temp;Humidity;BMP_temperature;BMP_pressure;BME280_temperature;BME280_humidity;BME280_pressure;Samples;Min_cycle;Max_cycle;Signal;HPM_P1;HPM_P2
2023/07/28 00:02:24;;;;;;;8.33;7.73;;;;;;;17.00;100.00;100202.47;5073314;28;20845;-42
2023/07/28 00:04:53;;;;;;;9.10;8.30;;;;;;;16.99;100.00;100207.03;5073019;28;20461;-42
2023/07/28 00:07:21;;;;;;;8.83;8.43;;;;;;;17.01;100.00;100206.78;5073390;28;20465;-42
2023/07/28 00:09:49;;;;;;;9.33;8.83;;;;;;;16.99;100.00;100209.72;5073485;28;20434;-42
2023/07/28 00:12:17;;;;;;;8.70;8.20;;;;;;;17.00;100.00;100214.06;5073358;28;20449;-44
2023/07/28 00:14:45;;;;;;;9.10;8.60;;;;;;;17.01;100.00;100209.50;5072800;28;21046;-42
2023/07/28 00:17:13;;;;;;;8.73;8.33;;;;;;;17.01;100.00;100212.19;5073382;28;20426;-43
2023/07/28 00:19:41;;;;;;;9.50;9.00;;;;;;;16.99;100.00;100215.09;5073417;28;20449;-42
2023/07/28 00:22:10;;;;;;;8.57;8.10;;;;;;;16.99;100.00;100227.78;5073058;28;20522;-43
2023/07/28 00:24:38;;;;;;;8.50;8.10;;;;;;;16.98;100.00;100232.34;5072526;28;20888;-42
2023/07/28 00:27:06;;;;;;;10.30;9.70;;;;;;;16.99;100.00;100233.19;5073162;28;20449;-42
2023/07/28 00:29:34;;;;;;;9.53;9.03;;;;;;;17.00;100.00;100229.41;5073060;28;20426;-42
2023/07/28 00:32:02;;;;;;;9.80;9.10;;;;;;;16.97;100.00;100229.91;5073110;28;20425;-43
2023/07/28 00:34:29;;;;;;;10.97;10.23;;;;;;;16.95;100.00;100224.78;5072337;28;20956;-43
2023/07/28 00:36:57;;;;;;;11.50;10.83;;;;;;;16.93;100.00;100228.78;5072886;28;20525;-44
2023/07/28 00:39:26;;;;;;;12.77;12.07;;;;;;;16.89;100.00;100236.56;5072951;28;20434;-42
2023/07/28 00:41:54;;;;;;;12.80;12.10;;;;;;;16.83;100.00;100234.03;5072574;28;20484;-42
2023/07/28 00:44:22;;;;;;;13.37;12.57;;;;;;;16.78;100.00;100239.38;5072299;28;20490;-42
2023/07/28 00:46:49;;;;;;;13.90;13.10;;;;;;;16.76;100.00;100242.28;5072807;28;20513;-42
2023/07/28 00:49:17;;;;;;;13.77;12.77;;;;;;;16.74;100.00;100241.72;5072143;28;20465;-42
2023/07/28 00:51:45;;;;;;;13.77;13.00;;;;;;;16.74;100.00;100239.03;5072637;28;20436;-42
2023/07/28 00:54:13;;;;;;;15.13;14.03;;;;;;;16.75;100.00;100237.16;5071688;28;20466;-44
2023/07/28 00:56:42;;;;;;;14.53;13.40;;;;;;;16.77;100.00;100238.53;5072639;28;20474;-42
2023/07/28 00:59:10;;;;;;;15.00;14.00;;;;;;;16.78;100.00;100239.38;5072111;28;20530;-43
2023/07/28 01:01:38;;;;;;;12.77;11.97;;;;;;;16.79;100.00;100241.78;5072307;28;20851;-43
2023/07/28 01:04:06;;;;;;;11.90;11.30;;;;;;;16.82;100.00;100229.69;5071368;28;20454;-46
2023/07/28 01:06:41;;;;;;;12.53;11.83;;;;;;;16.81;100.00;100231.59;5071965;28;20422;-44
2023/07/28 01:09:14;;;;;;;14.33;13.43;;;;;;;16.80;100.00;100232.66;5072533;28;20430;-42
2023/07/28 01:11:55;;;;;;;15.30;14.30;;;;;;;16.82;100.00;100229.69;5072050;28;20908;-43
2023/07/28 01:14:23;;;;;;;15.13;14.30;;;;;;;16.82;100.00;100219.75;5072027;28;20515;-42
2023/07/28 01:16:51;;;;;;;15.90;14.90;;;;;;;16.82;100.00;100218.94;5072092;28;20543;-42
2023/07/28 01:19:22;;;;;;;16.87;15.67;;;;;;;16.80;100.00;100223.75;5071647;28;20438;-42
2023/07/28 01:21:58;;;;;;;15.90;14.90;;;;;;;16.79;100.00;100222.94;5071805;28;20434;-43
2023/07/28 01:24:36;;;;;;;16.63;15.53;;;;;;;16.77;100.00;100218.88;5071228;28;20474;-45
2023/07/28 01:27:07;;;;;;;17.37;16.17;;;;;;;16.74;100.00;100222.88;5072427;28;20422;-42
2023/07/28 01:29:36;;;;;;;18.17;17.00;;;;;;;16.73;100.00;100223.13;5071756;28;20823;-43
2023/07/28 01:32:05;;;;;;;17.70;16.50;;;;;;;16.70;100.00;100216.34;5071488;28;21061;-42
2023/07/28 01:34:33;;;;;;;18.67;17.17;;;;;;;16.69;100.00;100216.63;5071409;28;20549;-42
2023/07/28 01:37:01;;;;;;;19.20;17.90;;;;;;;16.66;100.00;100223.31;5071404;28;20546;-44
2023/07/28 01:39:29;;;;;;;19.37;18.07;;;;;;;16.66;100.00;100222.50;5071519;28;20437;-42
2023/07/28 01:41:56;;;;;;;19.10;17.53;;;;;;;16.62;100.00;100226.75;5071735;28;20530;-41
2023/07/28 01:44:25;;;;;;;19.40;17.93;;;;;;;16.53;100.00;100221.75;5071317;28;20466;-44
2023/07/28 01:46:53;;;;;;;19.63;18.23;;;;;;;-141.22;100.00;65034.22;5071129;28;20611;-42
2023/07/28 01:49:21;;;;;;;20.00;18.60;;;;;;;-141.22;100.00;65034.22;5071056;28;20433;-45
2023/07/28 01:51:48;;;;;;;20.83;19.43;;;;;;;16.40;100.00;100234.75;5070788;28;20789;-45
2023/07/28 01:54:16;;;;;;;19.90;18.50;;;;;;;16.37;100.00;100233.38;5071091;28;20468;-42
2023/07/28 01:56:44;;;;;;;20.00;18.30;;;;;;;-141.22;100.00;65034.22;5071442;28;20474;-44
2023/07/28 01:59:13;;;;;;;19.23;17.90;;;;;;;16.35;100.00;100231.97;5071694;28;20864;-43
2023/07/28 02:01:42;;;;;;;19.20;18.00;;;;;;;16.37;100.00;100222.59;5070479;28;20967;-42
2023/07/28 02:04:09;;;;;;;19.17;17.77;;;;;;;16.38;100.00;100220.72;5070247;28;20462;-42
2023/07/28 02:06:37;;;;;;;22.17;20.60;;;;;;;16.39;100.00;100230.44;5071455;28;20525;-42
2023/07/28 02:09:05;;;;;;;20.93;19.53;;;;;;;16.41;100.00;100221.06;5071483;28;20895;-44
2023/07/28 02:11:33;;;;;;;21.97;20.27;;;;;;;16.41;100.00;100221.06;5071033;28;20522;-44
2023/07/28 02:14:00;;;;;;;19.10;17.80;;;;;;;16.41;100.00;100221.06;5070126;28;20515;-43
2023/07/28 02:16:30;;;;;;;20.50;19.10;;;;;;;16.41;100.00;100221.06;5070980;28;20469;-42
2023/07/28 02:18:59;;;;;;;22.13;20.63;;;;;;;16.41;100.00;100221.06;5070841;28;20430;-44
2023/07/28 02:21:28;;;;;;;21.57;19.97;;;;;;;16.41;100.00;100221.06;5070649;28;20484;-42
2023/07/28 02:23:57;;;;;;;21.00;19.60;;;;;;;16.41;100.00;100221.06;5070511;28;20458;-42
2023/07/28 02:26:25;;;;;;;21.80;20.40;;;;;;;16.41;100.00;100221.06;5070874;28;20454;-42
2023/07/28 02:28:53;;;;;;;21.10;19.60;;;;;;;16.41;100.00;100221.06;5070979;28;20430;-42
2023/07/28 02:31:20;;;;;;;22.03;20.43;;;;;;;16.41;100.00;100221.06;5070782;28;20516;-42
2023/07/28 02:33:48;;;;;;;20.87;19.40;;;;;;;16.41;100.00;100221.06;5069933;28;20473;-42
2023/07/28 02:36:17;;;;;;;24.27;22.37;;;;;;;16.43;100.00;100245.00;5070911;28;21050;-44
2023/07/28 02:38:45;;;;;;;21.60;20.20;;;;;;;-141.22;100.00;65034.22;5070843;28;20433;-42
2023/07/28 02:41:12;;;;;;;21.67;20.17;;;;;;;-141.22;100.00;65034.22;5070638;28;20458;-42
2023/07/28 02:43:40;;;;;;;21.80;20.37;;;;;;;-141.22;100.00;65034.22;5069706;28;20458;-42
2023/07/28 02:46:08;;;;;;;22.73;20.97;;;;;;;-141.22;100.00;65034.22;5070241;28;20458;-42
2023/07/28 02:48:36;;;;;;;24.33;22.53;;;;;;;-141.22;100.00;65034.22;5070334;28;20844;-42
2023/07/28 02:51:04;;;;;;;23.13;21.47;;;;;;;-141.22;100.00;76896.81;5070335;28;20452;-42
2023/07/28 02:53:33;;;;;;;23.30;21.17;;;;;;;-141.22;100.00;76896.81;5070062;28;20979;-44
2023/07/28 02:56:01;;;;;;;24.90;22.53;;;;;;;-141.22;100.00;76896.81;5070380;28;20469;-44
2023/07/28 02:58:28;;;;;;;23.90;22.17;;;;;;;-141.22;100.00;76896.81;5070431;28;20530;-42
2023/07/28 03:00:56;;;;;;;24.77;23.07;;;;;;;16.43;100.00;100245.00;5070629;28;20536;-42
2023/07/28 03:03:24;;;;;;;25.50;23.67;;;;;;;-141.22;100.00;65034.22;5069848;28;20450;-42
2023/07/28 03:05:53;;;;;;;25.50;23.70;;;;;;;;;;5066561;28;20465;-42
2023/07/28 03:08:21;;;;;;;25.53;23.50;;;;;;;-141.22;100.00;76896.81;5050736;28;20481;-41
2023/07/28 03:10:50;;;;;;;26.60;24.17;;;;;;;-141.22;100.00;76896.81;5050302;28;20850;-42
2023/07/28 03:13:18;;;;;;;28.33;26.07;;;;;;;-141.22;100.00;76896.81;5051446;28;20485;-41
2023/07/28 03:15:45;;;;;;;27.23;25.07;;;;;;;-141.22;100.00;76896.81;5054374;28;20538;-41
2023/07/28 03:18:13;;;;;;;28.43;26.33;;;;;;;-141.22;100.00;76896.81;5054696;28;20605;-42
2023/07/28 03:20:41;;;;;;;27.47;25.47;;;;;;;-141.22;100.00;76896.81;5053996;28;20868;-45
2023/07/28 03:23:08;;;;;;;29.30;26.77;;;;;;;-141.22;100.00;76896.81;5053030;28;20425;-44
2023/07/28 03:25:36;;;;;;;26.30;24.23;;;;;;;-141.22;100.00;52415.94;5053518;28;21068;-42
2023/07/28 03:28:05;;;;;;;27.80;25.50;;;;;;;-141.22;100.00;76896.81;5054033;28;20433;-42
2023/07/28 03:30:33;;;;;;;25.93;24.03;;;;;;;16.43;100.00;100245.00;5054352;28;20470;-42
2023/07/28 03:33:01;;;;;;;25.87;23.77;;;;;;;16.43;100.00;100245.00;5053564;28;20801;-46
2023/07/28 03:35:29;;;;;;;26.87;24.77;;;;;;;16.43;100.00;100245.00;5061617;28;20537;-42
2023/07/28 03:37:56;;;;;;;27.20;25.20;;;;;;;16.09;100.00;100273.00;5074059;28;20859;-43
2023/07/28 03:40:24;;;;;;;26.27;24.27;;;;;;;16.13;100.00;100266.88;5073865;28;20519;-42
2023/07/28 03:42:52;;;;;;;25.80;23.97;;;;;;;-141.22;100.00;65034.22;5072983;28;20789;-42
2023/07/28 03:45:22;;;;;;;28.50;26.20;;;;;;;-141.22;100.00;65034.22;5073380;28;20554;-42
2023/07/28 03:47:49;;;;;;;26.33;24.40;;;;;;;-141.22;100.00;65034.22;5073453;28;20434;-44
2023/07/28 03:50:17;;;;;;;26.50;24.43;;;;;;;-141.22;100.00;65034.22;5073389;28;20824;-44
2023/07/28 03:52:45;;;;;;;27.00;25.00;;;;;;;-141.22;100.00;65034.22;5073245;28;20870;-44
2023/07/28 03:55:13;;;;;;;28.20;26.00;;;;;;;16.13;100.00;100266.88;5072765;28;20497;-42
2023/07/28 03:57:41;;;;;;;28.13;25.90;;;;;;;16.13;100.00;100266.88;5073561;28;20469;-42
2023/07/28 04:00:10;;;;;;;27.97;25.97;;;;;;;16.13;100.00;100266.88;5073489;28;20426;-42
2023/07/28 04:02:39;;;;;;;26.50;24.60;;;;;;;16.13;100.00;100266.88;5073038;28;20796;-42
2023/07/28 04:05:07;;;;;;;27.50;25.70;;;;;;;16.13;100.00;100266.88;5069957;28;20549;-41
2023/07/28 04:07:35;;;;;;;26.10;24.27;;;;;;;16.31;100.00;100281.97;5073342;28;20422;-42
2023/07/28 04:10:03;;;;;;;26.70;24.83;;;;;;;16.31;100.00;100281.97;5073338;28;20860;-42
2023/07/28 04:12:30;;;;;;;27.10;25.23;;;;;;;-141.22;100.00;65034.22;5072872;28;20436;-42
2023/07/28 04:14:58;;;;;;;28.10;26.13;;;;;;;-141.22;100.00;65034.22;5072681;28;20481;-41
2023/07/28 04:17:26;;;;;;;27.07;24.93;;;;;;;-141.22;100.00;65034.22;5073171;28;20476;-45
2023/07/28 04:19:55;;;;;;;23.30;21.70;;;;;;;16.31;100.00;100281.97;5073038;28;20445;-42
2023/07/28 04:22:23;;;;;;;25.27;23.43;;;;;;;-141.22;100.00;76939.88;5072745;28;20487;-42
2023/07/28 04:24:50;;;;;;;26.03;24.20;;;;;;;-141.22;100.00;76939.88;5072148;28;20469;-44
2023/07/28 04:27:33;;;;;;;23.00;21.40;;;;;;;;;;5088530;28;20539;-42
2023/07/28 04:30:01;;;;;;;22.30;20.50;;;;;;;;;;5088316;28;20433;-43
2023/07/28 04:32:28;;;;;;;21.70;20.30;;;;;;;;;;5088272;28;20919;-43
2023/07/28 04:34:56;;;;;;;23.30;21.80;;;;;;;;;;5063061;28;20988;-44
2023/07/28 04:37:23;;;;;;;23.50;21.90;;;;;;;;;;5048333;28;20459;-44
2023/07/28 04:39:51;;;;;;;21.80;20.40;;;;;;;;;;5048068;28;20921;-43
2023/07/28 04:42:19;;;;;;;21.40;20.10;;;;;;;;;;5047522;28;21059;-43
2023/07/28 04:44:48;;;;;;;20.40;18.97;;;;;;;;;;5047566;28;20463;-42
2023/07/28 04:47:15;;;;;;;20.37;19.27;;;;;;;;;;5047759;28;20506;-42
2023/07/28 04:49:43;;;;;;;18.33;17.43;;;;;;;;;;5047065;28;20432;-42
2023/07/28 04:52:10;;;;;;;18.80;17.80;;;;;;;;;;5046826;28;20929;-42
2023/07/28 04:54:37;;;;;;;17.93;16.97;;;;;;;;;;5046868;28;20470;-42
2023/07/28 04:57:05;;;;;;;19.10;18.00;;;;;;;;;;5047289;28;20807;-42
2023/07/28 04:59:33;;;;;;;18.47;17.47;;;;;;;;;;5047878;28;20439;-43
2023/07/28 05:02:02;;;;;;;16.50;15.50;;;;;;;;;;5046971;28;20905;-45
2023/07/28 05:04:29;;;;;;;16.87;15.90;;;;;;;;;;5045060;28;20466;-42
2023/07/28 05:06:57;;;;;;;16.77;15.97;;;;;;;;;;5037773;28;20479;-43
2023/07/28 05:09:24;;;;;;;16.67;15.77;;;;;;;;;;5045758;28;20434;-43
2023/07/28 05:11:52;;;;;;;17.43;16.40;;;;;;;;;;5046835;28;20522;-44
2023/07/28 05:14:19;;;;;;;16.77;15.73;;;;;;;;;;5046857;28;20459;-42
2023/07/28 05:16:48;;;;;;;17.93;16.93;;;;;;;;;;5046984;28;20423;-43
2023/07/28 05:19:17;;;;;;;16.27;15.50;;;;;;;;;;5046649;28;20438;-43
2023/07/28 05:21:44;;;;;;;16.47;15.67;;;;;;;;;;5047252;28;20435;-43
2023/07/28 05:24:12;;;;;;;14.93;14.23;;;;;;;;;;5046696;28;20466;-43
2023/07/28 05:26:39;;;;;;;13.93;13.33;;;;;;;;;;5044976;28;20475;-45
2023/07/28 05:29:07;;;;;;;13.90;13.30;;;;;;;;;;5046818;28;20450;-42
2023/07/28 05:31:34;;;;;;;13.00;12.30;;;;;;;;;;5046777;28;20812;-41
2023/07/28 05:34:02;;;;;;;13.97;12.90;;;;;;;;;;5045696;28;20463;-42
2023/07/28 05:36:32;;;;;;;11.43;10.93;;;;;;;;;;5046105;28;20467;-40
2023/07/28 05:39:00;;;;;;;11.70;11.20;;;;;;;;;;5033066;28;20467;-44
2023/07/28 05:41:27;;;;;;;12.40;11.70;;;;;;;;;;5033376;28;20917;-41
2023/07/28 05:43:54;;;;;;;9.97;9.47;;;;;;;;;;5033443;28;20506;-41
2023/07/28 05:46:22;;;;;;;8.10;7.70;;;;;;;;;;5033514;28;20481;-41
2023/07/28 05:48:49;;;;;;;8.20;7.80;;;;;;;;;;5033035;28;20462;-43
2023/07/28 05:51:17;;;;;;;7.07;6.77;;;;;;;;;;5033222;28;20455;-41
2023/07/28 05:53:46;;;;;;;7.20;6.80;;;;;;;;;;5031402;28;20547;-41
2023/07/28 05:56:13;;;;;;;6.90;6.50;;;;;;;;;;5033322;28;20968;-43
2023/07/28 05:58:41;;;;;;;7.83;7.37;;;;;;;;;;5032954;28;20526;-41
2023/07/28 06:01:09;;;;;;;6.97;6.67;;;;;;;;;;5033418;28;20442;-43
2023/07/28 06:03:37;;;;;;;7.10;6.70;;;;;;;;;;5033044;28;20307;-41
2023/07/28 06:06:05;;;;;;;7.10;6.70;;;;;;;;;;5031570;28;20423;-41
2023/07/28 06:08:32;;;;;;;7.07;6.77;;;;;;;;;;5033483;28;20432;-41
2023/07/28 06:11:04;;;;;;;8.37;7.33;;;;;;;;;;5033544;28;20427;-41
2023/07/28 06:13:31;;;;;;;6.90;6.50;;;;;;;;;;5032957;28;20458;-43
2023/07/28 06:15:59;;;;;;;7.20;6.80;;;;;;;;;;5033290;28;21091;-42
2023/07/28 06:18:27;;;;;;;6.27;5.93;;;;;;;;;;5033388;28;20428;-43
2023/07/28 06:20:54;;;;;;;7.10;6.40;;;;;;;;;;5033326;28;20236;-41
2023/07/28 06:23:22;;;;;;;6.73;6.33;;;;;;;;;;5033027;28;20219;-41
2023/07/28 06:25:49;;;;;;;8.30;7.80;;;;;;;;;;5032870;28;20667;-41
2023/07/28 06:28:18;;;;;;;7.10;6.80;;;;;;;;;;5033404;28;20311;-41
2023/07/28 06:30:46;;;;;;;6.10;5.80;;;;;;;;;;5033293;28;20590;-43
2023/07/28 06:33:13;;;;;;;6.23;5.93;;;;;;;;;;5033247;28;20626;-41
2023/07/28 06:35:41;;;;;;;6.50;6.10;;;;;;;;;;5032908;28;20286;-41
2023/07/28 06:38:09;;;;;;;6.17;5.87;;;;;;;;;;5033370;28;20272;-44
2023/07/28 06:40:37;;;;;;;6.30;5.90;;;;;;;;;;5033217;28;20216;-41
2023/07/28 06:43:04;;;;;;;6.83;6.43;;;;;;;;;;5032815;28;20193;-44
2023/07/28 06:45:33;;;;;;;6.20;5.87;;;;;;;;;;5032693;28;20728;-41
2023/07/28 06:48:01;;;;;;;6.50;6.07;;;;;;;;;;5032881;28;20733;-41
2023/07/28 06:50:28;;;;;;;7.33;6.83;;;;;;;;;;5032308;28;20436;-42
2023/07/28 06:52:56;;;;;;;6.67;6.37;;;;;;;;;;5032988;28;20213;-40
2023/07/28 06:55:24;;;;;;;7.50;6.23;;;;;;;;;;5032453;28;20299;-41
2023/07/28 06:57:51;;;;;;;6.13;5.73;;;;;;;;;;5032872;28;20283;-41
2023/07/28 07:00:19;;;;;;;6.37;6.07;;;;;;;;;;5032749;28;20660;-43
2023/07/28 07:02:48;;;;;;;6.77;6.10;;;;;;;;;;5032771;28;20466;-42
2023/07/28 07:05:16;;;;;;;6.93;6.47;;;;;;;;;;5031815;28;20460;-41
2023/07/28 07:07:43;;;;;;;7.60;6.77;;;;;;;;;;5032630;28;21070;-43
2023/07/28 07:10:11;;;;;;;7.57;6.90;;;;;;;;;;5032720;28;20420;-41
2023/07/28 07:12:38;;;;;;;6.20;5.80;;;;;;;;;;5032433;28;21123;-41
2023/07/28 07:15:07;;;;;;;6.73;6.23;;;;;;;;;;5032170;28;20467;-41
2023/07/28 07:17:34;;;;;;;6.67;6.20;;;;;;;;;;5032586;28;20450;-41
2023/07/28 07:20:04;;;;;;;6.07;5.63;;;;;;;;;;5032471;28;20438;-41
2023/07/28 07:22:32;;;;;;;5.43;5.00;;;;;;;;;;5032199;28;20526;-40
2023/07/28 07:24:59;;;;;;;5.50;5.10;;;;;;;;;;5031932;28;20465;-41
2023/07/28 07:27:27;;;;;;;5.40;5.10;;;;;;;;;;5032015;28;20541;-40
2023/07/28 07:29:54;;;;;;;6.83;6.23;;;;;;;;;;5032395;28;20525;-40
2023/07/28 07:32:22;;;;;;;5.87;5.37;;;;;;;;;;5032172;28;20515;-41
2023/07/28 07:34:49;;;;;;;6.50;6.10;;;;;;;;;;5031741;28;21008;-41
2023/07/28 07:37:18;;;;;;;6.57;6.07;;;;;;;;;;5031971;28;20434;-40
2023/07/28 07:39:46;;;;;;;7.50;7.00;;;;;;;;;;5032319;28;20438;-40
2023/07/28 07:42:14;;;;;;;6.53;6.13;;;;;;;;;;5032085;28;20431;-40
2023/07/28 07:44:42;;;;;;;7.90;7.23;;;;;;;;;;5031610;28;20464;-41
2023/07/28 07:47:13;;;;;;;7.20;6.70;;;;;;;;;;5032054;28;20520;-40
2023/07/28 07:49:40;;;;;;;7.53;7.03;;;;;;;;;;5031933;28;20448;-41
2023/07/28 07:52:09;;;;;;;6.33;5.93;;;;;;;;;;5032012;28;20527;-40
2023/07/28 07:54:38;;;;;;;6.70;6.20;;;;;;;;;;5031345;28;20997;-41
2023/07/28 07:57:06;;;;;;;7.37;6.87;;;;;;;;;;5031777;28;20471;-41
2023/07/28 07:59:33;;;;;;;5.90;5.60;;;;;;;;;;5031849;28;20428;-41
2023/07/28 08:02:03;;;;;;;5.53;5.13;;;;;;;;;;5031437;28;20446;-41
2023/07/28 08:04:31;;;;;;;5.30;5.00;;;;;;;;;;5028436;28;20460;-40
2023/07/28 08:06:59;;;;;;;4.53;4.33;;;;;;;;;;5031642;28;20435;-40
2023/07/28 08:09:27;;;;;;;5.50;5.07;;;;;;;;;;5031565;28;20507;-42
2023/07/28 08:11:56;;;;;;;5.77;5.40;;;;;;;;;;5031547;28;20431;-40
2023/07/28 08:14:23;;;;;;;5.30;5.00;;;;;;;;;;5031179;28;20470;-40
2023/07/28 08:16:51;;;;;;;4.77;4.57;;;;;;;;;;5031538;28;20458;-40
2023/07/28 08:19:18;;;;;;;5.20;4.90;;;;;;;;;;5031521;28;20428;-40
2023/07/28 08:21:46;;;;;;;5.23;4.83;;;;;;;;;;5031357;28;20880;-40
2023/07/28 08:24:14;;;;;;;5.13;4.83;;;;;;;;;;5031011;28;20500;-40
2023/07/28 08:26:41;;;;;;;5.00;4.60;;;;;;;;;;5031426;28;20802;-40
2023/07/28 08:29:10;;;;;;;5.37;4.97;;;;;;;;;;5031512;28;20553;-41
2023/07/28 08:31:37;;;;;;;5.47;5.07;;;;;;;;;;5031173;28;20459;-40
2023/07/28 08:34:05;;;;;;;4.90;4.70;;;;;;;;;;5030810;28;20464;-40
2023/07/28 08:36:33;;;;;;;6.70;5.03;;;;;;;;;;5031654;28;20428;-41
2023/07/28 08:39:00;;;;;;;4.30;4.10;;;;;;;;;;5031446;28;20459;-41
2023/07/28 08:41:28;;;;;;;4.50;4.30;;;;;;;;;;5031147;28;20435;-40
2023/07/28 08:43:55;;;;;;;4.40;4.20;;;;;;;;;;5030826;28;20491;-41
2023/07/28 08:46:24;;;;;;;4.63;4.43;;;;;;;;;;5031293;28;20526;-43
2023/07/28 08:48:52;;;;;;;5.43;4.67;;;;;;;;;;5031444;28;20475;-40
2023/07/28 08:51:22;;;;;;;4.67;4.43;;;;;;;;;;5031120;28;20467;-41
2023/07/28 08:53:50;;;;;;;5.37;4.70;;;;;;;;;;5031161;28;20461;-40
2023/07/28 08:56:18;;;;;;;4.93;4.53;;;;;;;;;;5031340;28;20514;-40
2023/07/28 08:58:46;;;;;;;5.27;4.97;;;;;;;;;;5031191;28;20462;-41
2023/07/28 09:01:13;;;;;;;5.33;5.00;;;;;;;;;;5031142;28;20467;-40
2023/07/28 09:03:43;;;;;;;6.00;5.60;;;;;;;;;;5030747;28;20451;-44
2023/07/28 09:06:10;;;;;;;5.13;4.73;;;;;;;;;;5030967;28;20502;-40
2023/07/28 09:08:38;;;;;;;5.13;4.83;;;;;;;;;;5031141;28;20525;-42
2023/07/28 09:11:07;;;;;;;5.00;4.70;;;;;;;;;;5030807;28;20436;-41
2023/07/28 09:13:39;;;;;;;4.77;4.47;;;;;;;;;;5032888;28;20965;-40
2023/07/28 09:16:16;;;;;;;5.27;4.77;;;;;;;;;;5035033;28;20453;-41
2023/07/28 09:18:45;;;;;;;5.07;4.77;;;;;;;;;;5034916;28;20431;-45
2023/07/28 09:21:17;;;;;;;4.47;4.10;;;;;;;;;;5034742;28;20431;-40
2023/07/28 09:23:44;;;;;;;4.37;4.17;;;;;;;;;;5034120;28;20455;-40
2023/07/28 09:26:12;;;;;;;4.80;4.40;;;;;;;;;;5034696;28;20449;-42
2023/07/28 09:28:41;;;;;;;3.97;3.77;;;;;;;;;;5034700;28;20573;-40
2023/07/28 09:31:10;;;;;;;4.63;4.33;;;;;;;;;;5034662;28;20432;-44
2023/07/28 09:33:38;;;;;;;3.87;3.67;;;;;;;;;;5033992;28;20933;-41
2023/07/28 09:36:11;;;;;;;4.20;3.90;;;;;;;;;;5034394;28;20985;-41
2023/07/28 09:38:40;;;;;;;4.30;4.00;;;;;;;;;;5034389;28;20497;-40
2023/07/28 09:41:10;;;;;;;3.87;3.60;;;;;;;;;;5034561;28;20427;-40
2023/07/28 09:43:38;;;;;;;4.03;3.83;;;;;;;;;;5033769;28;20458;-40
2023/07/28 09:46:06;;;;;;;4.30;4.10;;;;;;;;;;5034395;28;20438;-41
2023/07/28 09:48:34;;;;;;;4.60;4.30;;;;;;;;;;5034129;28;20468;-41
2023/07/28 09:51:05;;;;;;;3.67;3.37;;;;;;;;;;5034177;28;20424;-40
2023/07/28 09:53:36;;;;;;;3.90;3.70;;;;;;;;;;5033760;28;20452;-42
2023/07/28 09:56:04;;;;;;;5.60;4.27;;;;;;;;;;5034134;28;20431;-40
2023/07/28 09:58:34;;;;;;;3.80;3.50;;;;;;;;;;5034016;28;20464;-40
2023/07/28 10:01:02;;;;;;;3.30;3.10;;;;;;;;;;5033896;28;20442;-41
2023/07/28 10:03:30;;;;;;;3.33;3.23;;;;;;;;;;5033859;28;20487;-41
2023/07/28 10:05:57;;;;;;;3.57;3.37;;;;;;;;;;5031258;28;20442;-40
2023/07/28 10:08:25;;;;;;;3.40;3.20;;;;;;;;;;5034031;28;20436;-40
2023/07/28 10:10:55;;;;;;;3.90;3.70;;;;;;;;;;5033899;28;20801;-41
2023/07/28 10:13:23;;;;;;;4.00;3.80;;;;;;;;;;5033649;28;20456;-41
2023/07/28 10:15:51;;;;;;;3.70;3.50;;;;;;;;;;5033232;28;20464;-40
2023/07/28 10:18:20;;;;;;;3.60;3.40;;;;;;;;;;5033891;28;20436;-41
2023/07/28 10:20:49;;;;;;;3.80;3.60;;;;;;;;;;5033626;28;20502;-40
2023/07/28 10:23:17;;;;;;;3.70;3.50;;;;;;;;;;5033181;28;20527;-40
2023/07/28 10:25:46;;;;;;;4.23;4.03;;;;;;;;;;5033003;28;21100;-42
2023/07/28 10:28:27;;;;;;;3.80;3.60;;;;;;;;;;5033378;28;20526;-40
2023/07/28 10:30:55;;;;;;;4.00;3.80;;;;;;;;;;5033459;28;20443;-40
2023/07/28 10:33:33;;;;;;;5.10;3.10;;;;;;;;;;5033122;28;20456;-40
2023/07/28 10:36:01;;;;;;;3.43;3.33;;;;;;;;;;5033131;28;20502;-41
2023/07/28 10:38:32;;;;;;;3.50;3.10;;;;;;;;;;5033289;28;20442;-41
2023/07/28 10:41:11;;;;;;;3.63;3.43;;;;;;;;;;5032365;28;20489;-41
2023/07/28 10:43:40;;;;;;;3.40;3.20;;;;;;;;;;5032490;28;20555;-40
2023/07/28 10:46:09;;;;;;;3.23;3.00;;;;;;;;;;5033194;28;20965;-40
2023/07/28 10:48:37;;;;;;;3.20;3.03;;;;;;;;;;5033182;28;20436;-40
2023/07/28 10:51:05;;;;;;;3.47;3.27;;;;;;;;;;5032898;28;20491;-41
2023/07/28 10:53:32;;;;;;;3.70;3.50;;;;;;;;;;5032185;28;20456;-40
2023/07/28 10:56:01;;;;;;;3.37;3.23;;;;;;;;;;5032599;28;20984;-40
2023/07/28 10:58:28;;;;;;;3.87;3.67;;;;;;;;;;5032891;28;20471;-44
2023/07/28 11:00:57;;;;;;;4.00;3.70;;;;;;;;;;5033165;28;20452;-41
2023/07/28 11:03:25;;;;;;;3.57;3.27;;;;;;;;;;5032891;28;20468;-41
2023/07/28 11:05:56;;;;;;;3.07;2.93;;;;;;;;;;5031857;28;20547;-43
2023/07/28 11:08:24;;;;;;;3.07;2.93;;;;;;;;;;5012844;28;20487;-40
2023/07/28 11:10:51;;;;;;;3.47;3.17;;;;;;;;;;5013001;28;20484;-40
2023/07/28 11:13:19;;;;;;;3.47;3.20;;;;;;;;;;5012755;28;20431;-42
2023/07/28 11:15:53;;;;;;;3.30;3.10;;;;;;;;;;5012420;28;21002;-41
2023/07/28 11:18:22;;;;;;;3.37;3.17;;;;;;;;;;5012961;28;20436;-41
2023/07/28 11:20:49;;;;;;;3.03;2.83;;;;;;;;;;5013069;28;20429;-42
2023/07/28 11:23:17;;;;;;;3.33;3.13;;;;;;;;;;5012101;28;20425;-44
2023/07/28 11:25:47;;;;;;;3.00;2.90;;;;;;;;;;5012212;28;20469;-40
2023/07/28 11:28:14;;;;;;;3.50;3.30;;;;;;;;;;5012629;28;20495;-41
2023/07/28 11:30:43;;;;;;;2.93;2.83;;;;;;;;;;5012512;28;20500;-41
2023/07/28 11:33:12;;;;;;;3.03;2.87;;;;;;;;;;5012675;28;20432;-41
2023/07/28 11:35:44;;;;;;;3.40;3.30;;;;;;;;;;5012266;28;20552;-42
2023/07/28 11:38:12;;;;;;;3.33;3.13;;;;;;;;;;5012128;28;20436;-41
2023/07/28 11:40:40;;;;;;;3.37;3.27;;;;;;;;;;5012481;28;20435;-41
2023/07/28 11:43:08;;;;;;;3.70;3.50;;;;;;;;;;5012013;28;20448;-41
2023/07/28 11:45:35;;;;;;;3.67;3.47;;;;;;;;;;5012050;28;20476;-42
2023/07/28 11:48:03;;;;;;;3.20;3.03;;;;;;;;;;5012387;28;20502;-40
2023/07/28 11:50:36;;;;;;;3.03;2.93;;;;;;;;;;5012311;28;20546;-41
2023/07/28 11:53:05;;;;;;;3.30;3.10;;;;;;;;;;5011556;28;20440;-44
2023/07/28 11:55:34;;;;;;;3.77;3.60;;;;;;;;;;5011817;28;20491;-41
2023/07/28 11:58:04;;;;;;;2.90;2.80;;;;;;;;;;5012433;28;20880;-41
2023/07/28 12:00:34;;;;;;;3.10;3.00;;;;;;;;;;5012274;28;20460;-40
2023/07/28 12:03:04;;;;;;;2.90;2.70;;;;;;;;;;5012095;28;20519;-42
2023/07/28 12:05:33;;;;;;;3.60;3.30;;;;;;;;;;5027366;28;20981;-41
2023/07/28 12:08:02;;;;;;;3.30;3.20;;;;;;;;;;5031302;28;20428;-41
2023/07/28 12:10:32;;;;;;;3.00;2.90;;;;;;;;;;5031514;28;20858;-40
2023/07/28 12:13:05;;;;;;;3.17;2.97;;;;;;;;;;5031396;28;20459;-41
2023/07/28 12:15:41;;;;;;;3.10;2.90;;;;;;;;;;5031541;28;20459;-42
2023/07/28 12:18:12;;;;;;;2.67;2.57;;;;;;;;;;5031987;28;20427;-40
2023/07/28 12:20:46;;;;;;;3.23;3.10;;;;;;;;;;5031510;28;21006;-43
2023/07/28 12:23:14;;;;;;;3.03;2.80;;;;;;;;;;5031077;28;20462;-41
2023/07/28 12:25:46;;;;;;;3.63;3.43;;;;;;;;;;5031023;28;20463;-41
2023/07/28 12:28:14;;;;;;;4.07;3.77;;;;;;;;;;5031483;28;20481;-42
2023/07/28 12:30:44;;;;;;;3.63;3.33;;;;;;;;;;5031597;28;20474;-44
2023/07/28 12:33:12;;;;;;;3.00;2.90;;;;;;;;;;5031042;28;21006;-41
2023/07/28 12:35:43;;;;;;;3.17;2.97;;;;;;;;;;5030604;28;20884;-40
2023/07/28 12:38:13;;;;;;;3.30;3.10;;;;;;;;;;5031864;28;20506;-41
2023/07/28 12:40:43;;;;;;;3.40;3.20;;;;;;;;;;5032039;28;20412;-41
2023/07/28 12:43:15;;;;;;;3.00;2.83;;;;;;;;;;5031239;28;20470;-43
2023/07/28 12:45:46;;;;;;;2.67;2.57;;;;;;;;;;5030820;28;20534;-41
2023/07/28 12:48:16;;;;;;;4.10;3.27;;;;;;;;;;5033536;28;20985;-42
2023/07/28 12:50:48;;;;;;;3.40;3.17;;;;;;;;;;5034370;28;21075;-41
2023/07/28 12:53:17;;;;;;;4.67;3.60;;;;;;;;;;5034533;28;20435;-40
2023/07/28 12:55:50;;;;;;;3.10;2.90;;;;;;;;;;5034810;28;20509;-43
2023/07/28 12:58:21;;;;;;;3.07;2.87;;;;;;;;;;5035340;28;20431;-41
2023/07/28 13:00:52;;;;;;;3.17;3.00;;;;;;;;;;5035295;28;20432;-44
2023/07/28 13:03:23;;;;;;;3.00;2.80;;;;;;;;;;5035203;28;20518;-45
2023/07/28 13:05:51;;;;;;;3.67;3.47;;;;;;;;;;5033852;28;20525;-43
2023/07/28 13:08:18;;;;;;;3.60;3.30;;;;;;;;;;5034965;28;20510;-42
2023/07/28 13:11:06;;;;;;;3.00;2.90;;;;;;;;;;5034805;28;20478;-45
2023/07/28 13:13:37;;;;;;;3.80;3.60;;;;;;;;;;5034437;28;20460;-42
2023/07/28 13:16:06;;;;;;;4.00;3.80;;;;;;;;;;5034934;28;20893;-41
2023/07/28 13:18:39;;;;;;;3.20;3.00;;;;;;;;;;5034866;28;20435;-41
2023/07/28 13:21:07;;;;;;;3.47;3.27;;;;;;;;;;5034398;28;20486;-43
2023/07/28 13:23:34;;;;;;;3.33;3.10;;;;;;;;;;5034221;28;21016;-41